Time;durP1;ratioP1;P1;durP2;ratioP2;P2;SDS_P1;SDS_P2;PMS_P1;PMS_P2;Temp;Humidity;BMP_temperature;BMP_pressure;BME280_temperature;BME280_humidity;BME280_pressure;Samples;Min_cycle;Max_cycle;Signal;HPM_P1;HPM_P2
2024/04/24 00:01:48;;;;;;;11.50;6.53;;;4.60;90.40;;;;;;5386675;26;20220;-88
2024/04/24 00:04:13;;;;;;;12.50;11.20;;;4.60;90.00;;;;;;5386625;26;20214;-87
2024/04/24 00:06:39;;;;;;;11.00;9.93;;;4.60;89.50;;;;;;5386722;26;20221;-88
2024/04/24 00:09:04;;;;;;;10.80;9.90;;;4.60;89.40;;;;;;5386299;26;20218;-87
2024/04/24 00:11:30;;;;;;;11.57;9.80;;;4.70;89.00;;;;;;5384308;26;20248;-88
2024/04/24 00:13:56;;;;;;;11.60;10.43;;;4.70;88.70;;;;;;5386814;26;20219;-87
2024/04/24 00:16:21;;;;;;;12.20;10.43;;;4.70;88.60;;;;;;5385569;26;20232;-88
2024/04/24 00:18:47;;;;;;;12.60;11.33;;;4.70;87.40;;;;;;5386463;26;20225;-87
2024/04/24 00:21:12;;;;;;;11.93;10.93;;;4.80;87.20;;;;;;5416680;21;20266;-87
2024/04/24 00:23:38;;;;;;;12.70;11.57;;;4.80;86.70;;;;;;5426833;26;20554;-87
2024/04/24 00:26:03;;;;;;;15.07;11.40;;;4.80;86.80;;;;;;5458694;26;20216;-87
2024/04/24 00:28:29;;;;;;;14.07;12.40;;;4.80;86.50;;;;;;5458319;26;20316;-88
2024/04/24 00:30:59;;;;;;;14.50;12.83;;;4.90;86.10;;;;;;5426298;26;20256;-87
2024/04/24 00:33:24;;;;;;;14.10;12.67;;;4.90;86.10;;;;;;5426523;26;20711;-87
2024/04/24 00:35:50;;;;;;;13.07;11.83;;;4.90;86.20;;;;;;5459475;26;20216;-85
2024/04/24 00:38:15;;;;;;;11.83;10.00;;;4.90;87.10;;;;;;5427705;26;20264;-87
2024/04/24 00:40:41;;;;;;;12.60;11.40;;;4.80;87.90;;;;;;5459973;26;20228;-87
2024/04/24 00:43:06;;;;;;;16.47;11.80;;;4.70;88.60;;;;;;5460017;26;20311;-87
2024/04/24 00:45:32;;;;;;;12.97;10.17;;;4.70;89.30;;;;;;5427456;26;20224;-88
2024/04/24 00:47:58;;;;;;;12.60;10.73;;;4.60;89.40;;;;;;5428030;26;20219;-87
2024/04/24 00:50:25;;;;;;;14.80;11.20;;;4.60;89.80;;;;;;5459545;26;20318;-87
2024/04/24 00:52:51;;;;;;;15.23;9.83;;;4.60;90.10;;;;;;5459046;26;20261;-87
2024/04/24 00:55:16;;;;;;;10.37;9.37;;;4.60;90.10;;;;;;5459113;26;20215;-88
2024/04/24 00:57:43;;;;;;;15.33;10.87;;;4.60;90.00;;;;;;5458649;26;20218;-87
2024/04/24 01:00:09;;;;;;;15.73;11.30;;;4.60;90.20;;;;;;5458721;26;20216;-88
2024/04/24 01:02:35;;;;;;;13.93;10.03;;;4.60;90.50;;;;;;5426817;26;20234;-87
2024/04/24 01:05:00;;;;;;;17.13;10.50;;;4.60;90.30;;;;;;5459213;26;20219;-87
2024/04/24 01:07:26;;;;;;;10.10;8.97;;;4.60;89.90;;;;;;5459261;26;20220;-88
2024/04/24 01:09:51;;;;;;;15.87;10.40;;;4.60;90.10;;;;;;5427529;26;20239;-87
2024/04/24 01:12:17;;;;;;;11.10;10.07;;;4.60;90.10;;;;;;5427020;26;20265;-87
2024/04/24 01:14:42;;;;;;;12.60;9.63;;;4.50;90.40;;;;;;5427331;26;20235;-87
2024/04/24 01:17:10;;;;;;;10.47;9.20;;;4.50;90.10;;;;;;5459622;26;20226;-87
2024/04/24 01:19:48;;;;;;;16.03;8.37;;;4.50;90.10;;;;;;5458598;26;20262;-88
2024/04/24 01:22:27;;;;;;;9.70;9.00;;;4.50;89.70;;;;;;5426299;26;20238;-87
2024/04/24 01:25:30;;;;;;;9.80;8.63;;;4.50;89.60;;;;;;5458592;26;20235;-88
2024/04/24 01:27:56;;;;;;;14.57;8.83;;;4.50;89.30;;;;;;5425798;26;20627;-88
2024/04/24 01:30:22;;;;;;;11.60;7.97;;;4.60;89.30;;;;;;5458122;26;20224;-88
2024/04/24 01:32:47;;;;;;;8.50;4.93;;;4.50;89.70;;;;;;5425772;26;20223;-88
2024/04/24 01:35:13;;;;;;;14.00;4.70;;;4.40;89.70;;;;;;5457654;26;20265;-88
2024/04/24 01:37:38;;;;;;;4.70;4.30;;;4.40;90.00;;;;;;5457317;26;20219;-87
2024/04/24 01:40:04;;;;;;;10.07;5.40;;;4.40;90.10;;;;;;5425591;26;20313;-87
2024/04/24 01:42:30;;;;;;;7.43;5.37;;;4.40;90.20;;;;;;5425163;26;20228;-88
2024/04/24 01:44:55;;;;;;;9.77;5.97;;;4.40;90.60;;;;;;5426081;26;20247;-87
2024/04/24 01:47:21;;;;;;;10.10;5.33;;;4.50;90.40;;;;;;5426822;26;20224;-87
2024/04/24 01:49:46;;;;;;;10.23;5.37;;;4.50;90.40;;;;;;5458198;26;20215;-87
2024/04/24 01:52:12;;;;;;;7.60;5.30;;;4.50;90.20;;;;;;5426903;26;20318;-87
2024/04/24 01:54:37;;;;;;;9.33;5.83;;;4.40;90.30;;;;;;5427189;26;20634;-88
2024/04/24 01:57:03;;;;;;;8.07;5.50;;;4.40;90.40;;;;;;5458176;26;20258;-88
2024/04/24 01:59:28;;;;;;;6.37;5.73;;;4.40;90.30;;;;;;5426481;26;20216;-88
2024/04/24 02:01:54;;;;;;;9.63;5.80;;;4.50;90.30;;;;;;5426322;26;20311;-87
2024/04/24 02:04:19;;;;;;;12.70;5.57;;;4.50;90.30;;;;;;5458432;26;20300;-87
2024/04/24 02:06:45;;;;;;;11.53;5.87;;;4.40;90.00;;;;;;5458321;26;20229;-87
2024/04/24 02:09:10;;;;;;;8.97;6.20;;;4.40;90.10;;;;;;5425496;26;20258;-87
2024/04/24 02:11:36;;;;;;;16.80;6.20;;;4.40;90.30;;;;;;5426337;26;20250;-87
2024/04/24 02:14:01;;;;;;;11.20;5.83;;;4.40;90.20;;;;;;5458622;26;20351;-87
2024/04/24 02:16:27;;;;;;;10.90;5.77;;;4.40;90.00;;;;;;5456949;26;20217;-87
2024/04/24 02:18:52;;;;;;;7.13;4.90;;;4.40;89.80;;;;;;5425279;26;20264;-88
2024/04/24 02:21:18;;;;;;;9.03;4.93;;;4.40;89.80;;;;;;5425376;26;20239;-87
2024/04/24 02:23:43;;;;;;;14.87;5.70;;;4.50;89.40;;;;;;5457339;26;20687;-88
2024/04/24 02:26:09;;;;;;;11.10;5.70;;;4.50;88.60;;;;;;5425098;26;20220;-87
2024/04/24 02:28:35;;;;;;;13.13;5.80;;;4.40;88.00;;;;;;5457291;26;20542;-87
2024/04/24 02:31:01;;;;;;;10.87;4.90;;;4.40;88.10;;;;;;5425118;26;20285;-87
2024/04/24 02:33:27;;;;;;;8.53;5.27;;;4.40;87.60;;;;;;5425720;26;20263;-87
2024/04/24 02:35:52;;;;;;;8.23;4.47;;;4.40;88.50;;;;;;5426664;26;20227;-88
2024/04/24 02:38:18;;;;;;;11.83;8.77;;;4.40;88.90;;;;;;5456529;26;20218;-87
2024/04/24 02:40:44;;;;;;;9.97;8.97;;;4.30;89.20;;;;;;5425368;26;20325;-87
2024/04/24 02:43:09;;;;;;;13.77;10.20;;;4.30;89.00;;;;;;5457863;26;20215;-87
2024/04/24 02:45:35;;;;;;;11.47;10.30;;;4.30;89.10;;;;;;5458245;26;20219;-87
2024/04/24 02:48:01;;;;;;;11.50;8.97;;;4.30;89.40;;;;;;5457756;26;20243;-88
2024/04/24 02:50:27;;;;;;;10.87;9.37;;;4.30;89.40;;;;;;5426607;26;20245;-87
2024/04/24 02:52:52;;;;;;;12.67;10.67;;;4.40;89.70;;;;;;5458527;26;20220;-88
2024/04/24 02:55:18;;;;;;;9.90;9.00;;;4.30;89.60;;;;;;5426252;26;20223;-88
2024/04/24 02:57:44;;;;;;;11.40;10.40;;;4.30;89.70;;;;;;5426529;26;20234;-88
2024/04/24 03:00:10;;;;;;;14.73;10.20;;;4.30;89.80;;;;;;5425394;26;20217;-87
2024/04/24 03:02:36;;;;;;;10.30;9.20;;;4.30;90.00;;;;;;5425327;26;20220;-88
2024/04/24 03:05:02;;;;;;;12.60;10.10;;;4.30;90.20;;;;;;5457272;26;20346;-88
2024/04/24 03:07:28;;;;;;;13.17;9.37;;;4.30;90.20;;;;;;5457171;26;20278;-88
2024/04/24 03:09:54;;;;;;;11.03;9.07;;;4.30;90.30;;;;;;5457087;26;20212;-87
2024/04/24 03:12:19;;;;;;;11.57;9.27;;;4.20;90.30;;;;;;5456628;26;20749;-88
2024/04/24 03:14:48;;;;;;;12.10;9.90;;;4.20;90.40;;;;;;5425291;26;20226;-88
2024/04/24 03:17:13;;;;;;;14.60;10.33;;;4.30;90.30;;;;;;5457129;26;20215;-87
2024/04/24 03:19:39;;;;;;;12.67;8.00;;;4.20;90.30;;;;;;5426487;26;20242;-87
2024/04/24 03:22:04;;;;;;;18.90;9.87;;;4.30;90.30;;;;;;5429696;26;20233;-87
2024/04/24 03:24:32;;;;;;;17.23;10.13;;;4.20;90.40;;;;;;5430022;26;20222;-88
2024/04/24 03:26:57;;;;;;;12.33;8.73;;;4.20;90.50;;;;;;5428499;26;20234;-87
2024/04/24 03:29:23;;;;;;;10.40;8.83;;;4.20;90.40;;;;;;5427911;26;20224;-88
2024/04/24 03:31:49;;;;;;;11.67;9.43;;;4.20;90.10;;;;;;5427249;26;20657;-88
2024/04/24 03:34:14;;;;;;;14.67;10.27;;;4.20;90.30;;;;;;5459002;26;20711;-88
2024/04/24 03:36:40;;;;;;;25.27;9.20;;;4.20;90.50;;;;;;5427252;26;20226;-88
2024/04/24 03:39:05;;;;;;;18.33;9.07;;;4.10;90.40;;;;;;5427159;26;20305;-88
2024/04/24 03:41:31;;;;;;;12.37;8.73;;;4.10;90.40;;;;;;5424973;26;20570;-88
2024/04/24 03:43:56;;;;;;;14.80;8.90;;;4.10;90.40;;;;;;5429311;26;20248;-87
2024/04/24 03:46:22;;;;;;;13.50;9.20;;;4.10;90.60;;;;;;5429513;26;20222;-87
2024/04/24 03:48:47;;;;;;;12.53;8.63;;;4.10;90.30;;;;;;5430063;26;20224;-86
2024/04/24 03:51:13;;;;;;;10.47;8.97;;;4.10;90.30;;;;;;5423941;26;20232;-87
2024/04/24 03:53:39;;;;;;;16.00;7.80;;;4.10;90.50;;;;;;5455514;26;20226;-87
2024/04/24 03:56:06;;;;;;;15.93;8.37;;;4.10;90.40;;;;;;5455907;26;20209;-86
2024/04/24 03:58:31;;;;;;;10.30;7.40;;;4.00;90.30;;;;;;5423905;26;20220;-86
2024/04/24 04:00:57;;;;;;;12.50;8.57;;;4.10;90.40;;;;;;5455656;26;20221;-87
2024/04/24 04:03:22;;;;;;;15.47;8.33;;;4.00;90.20;;;;;;5455886;26;20262;-87
2024/04/24 04:05:48;;;;;;;12.13;8.40;;;4.00;90.60;;;;;;5455644;26;20252;-87
2024/04/24 04:08:13;;;;;;;9.87;7.73;;;4.00;90.40;;;;;;5455677;26;20214;-87
2024/04/24 04:10:39;;;;;;;10.07;7.80;;;4.00;90.50;;;;;;5423935;26;20678;-87
2024/04/24 04:13:04;;;;;;;12.47;9.03;;;4.00;90.70;;;;;;5423917;26;20595;-87
2024/04/24 04:15:30;;;;;;;13.73;8.03;;;4.00;90.50;;;;;;5423651;26;20252;-87
2024/04/24 04:17:55;;;;;;;11.20;8.03;;;4.00;90.60;;;;;;5424911;26;20228;-87
2024/04/24 04:20:21;;;;;;;12.10;7.77;;;4.00;90.50;;;;;;5455255;26;20232;-86
2024/04/24 04:22:46;;;;;;;12.37;7.47;;;4.00;90.60;;;;;;5454862;26;20204;-87
2024/04/24 04:25:12;;;;;;;8.43;5.30;;;4.00;90.50;;;;;;5422950;26;20226;-86
2024/04/24 04:27:39;;;;;;;7.77;4.73;;;4.00;90.50;;;;;;5455044;26;20213;-86
2024/04/24 04:30:06;;;;;;;11.30;4.80;;;4.00;90.70;;;;;;5455226;26;20320;-87
2024/04/24 04:32:31;;;;;;;7.77;6.10;;;4.00;90.60;;;;;;5456379;26;20280;-89
2024/04/24 04:34:57;;;;;;;12.87;6.23;;;4.00;90.60;;;;;;5455211;26;20224;-86
2024/04/24 04:37:22;;;;;;;12.33;5.70;;;4.00;90.70;;;;;;5454700;26;20302;-86
2024/04/24 04:39:48;;;;;;;6.60;5.10;;;4.00;90.80;;;;;;5454462;26;20289;-86
2024/04/24 04:42:13;;;;;;;8.23;5.33;;;4.10;91.00;;;;;;5423079;26;20233;-86
2024/04/24 04:44:39;;;;;;;18.00;5.27;;;4.10;91.10;;;;;;5455128;26;20214;-87
2024/04/24 04:47:04;;;;;;;8.57;5.27;;;4.00;91.00;;;;;;5455008;26;20223;-87
2024/04/24 04:49:30;;;;;;;10.20;5.67;;;4.10;91.10;;;;;;5423346;26;20221;-87
2024/04/24 04:51:56;;;;;;;7.40;5.90;;;4.10;91.10;;;;;;5422659;26;20232;-87
2024/04/24 04:54:21;;;;;;;10.93;5.93;;;4.00;91.10;;;;;;5454318;26;20219;-87
2024/04/24 04:56:47;;;;;;;10.40;4.80;;;4.00;91.20;;;;;;5454450;26;20209;-87
2024/04/24 04:59:12;;;;;;;10.03;6.17;;;4.10;91.50;;;;;;5455011;26;20252;-88
2024/04/24 05:01:38;;;;;;;13.00;5.80;;;4.00;91.60;;;;;;5454438;26;20226;-88
2024/04/24 05:04:03;;;;;;;10.67;6.00;;;4.10;91.90;;;;;;5454402;26;20260;-88
2024/04/24 05:06:29;;;;;;;8.57;5.30;;;4.00;91.80;;;;;;5422994;26;20222;-88
2024/04/24 05:08:54;;;;;;;9.83;4.93;;;4.00;92.00;;;;;;5454125;26;20248;-86
2024/04/24 05:11:20;;;;;;;7.90;5.00;;;4.00;92.00;;;;;;5454714;26;20227;-86
2024/04/24 05:13:46;;;;;;;12.47;5.10;;;4.00;91.90;;;;;;5454341;26;20212;-87
2024/04/24 05:16:11;;;;;;;7.37;4.67;;;3.90;91.70;;;;;;5422517;26;20243;-87
2024/04/24 05:18:40;;;;;;;13.97;5.20;;;3.90;91.60;;;;;;5422783;26;20220;-87
2024/04/24 05:21:09;;;;;;;3.90;3.50;;;4.00;92.00;;;;;;5454218;26;20261;-87
2024/04/24 05:23:34;;;;;;;9.37;4.97;;;3.90;91.90;;;;;;5422637;26;20773;-87
2024/04/24 05:31:35;;;;;;;4.90;4.50;;;3.80;92.20;;;;;;5455356;26;20316;-87
2024/04/24 05:34:02;;;;;;;5.20;4.70;;;3.80;92.30;;;;;;5422048;26;20217;-87
2024/04/24 05:36:27;;;;;;;5.37;4.87;;;3.80;92.20;;;;;;5422083;26;20232;-87
2024/04/24 05:38:53;;;;;;;8.53;5.00;;;3.80;92.40;;;;;;5422199;26;20251;-88
2024/04/24 05:41:18;;;;;;;4.30;3.90;;;3.80;92.60;;;;;;5453610;26;20318;-88
2024/04/24 05:43:44;;;;;;;5.97;4.53;;;3.70;92.60;;;;;;5420336;26;20221;-88
2024/04/24 05:46:10;;;;;;;4.70;4.10;;;3.70;92.30;;;;;;5453676;26;20271;-88
2024/04/24 05:48:35;;;;;;;5.37;3.97;;;3.60;92.20;;;;;;5422196;26;20224;-88
2024/04/24 05:51:01;;;;;;;4.67;4.27;;;3.70;92.30;;;;;;5453843;26;20251;-88
2024/04/24 05:53:26;;;;;;;6.23;4.97;;;3.80;92.30;;;;;;5421983;26;20221;-88
2024/04/24 05:55:52;;;;;;;5.03;3.70;;;3.80;92.30;;;;;;5421799;26;20261;-88
2024/04/24 05:58:18;;;;;;;4.20;3.90;;;3.60;91.90;;;;;;5453429;26;20243;-88
2024/04/24 06:00:43;;;;;;;4.60;4.20;;;3.60;91.90;;;;;;5453321;26;20251;-88
2024/04/24 06:03:09;;;;;;;5.30;4.80;;;3.70;91.90;;;;;;5453438;26;20224;-88
2024/04/24 06:05:34;;;;;;;6.67;6.00;;;3.70;91.90;;;;;;5421491;26;20251;-88
2024/04/24 06:08:00;;;;;;;7.50;6.80;;;3.60;91.80;;;;;;5421545;26;20253;-88
2024/04/24 06:10:25;;;;;;;7.40;5.70;;;3.60;91.80;;;;;;5421510;26;20274;-88
2024/04/24 06:12:51;;;;;;;10.60;9.60;;;3.60;92.10;;;;;;5453174;26;20214;-88
2024/04/24 06:15:16;;;;;;;12.10;10.90;;;3.60;92.00;;;;;;5421506;26;20219;-88
2024/04/24 06:17:42;;;;;;;10.23;9.27;;;3.60;92.10;;;;;;5421418;26;20264;-88
2024/04/24 06:20:09;;;;;;;12.13;10.93;;;3.50;92.30;;;;;;5421228;26;20624;-88
2024/04/24 06:22:34;;;;;;;10.00;9.10;;;3.40;92.60;;;;;;5453174;26;20553;-88
2024/04/24 06:25:00;;;;;;;9.60;8.23;;;3.30;92.30;;;;;;5453255;26;20264;-88
2024/04/24 06:27:25;;;;;;;10.60;9.50;;;3.30;92.10;;;;;;5452840;26;20246;-87
2024/04/24 06:29:51;;;;;;;12.77;11.67;;;3.20;92.30;;;;;;5421105;26;20253;-87
2024/04/24 06:32:16;;;;;;;14.77;13.37;;;3.20;92.30;;;;;;5421085;26;20232;-87
2024/04/24 06:34:42;;;;;;;13.57;11.63;;;3.30;92.40;;;;;;5452824;26;20210;-88
2024/04/24 06:37:08;;;;;;;13.33;11.93;;;3.30;92.50;;;;;;5421162;26;20698;-88
2024/04/24 06:39:33;;;;;;;14.27;13.07;;;3.40;92.30;;;;;;5420919;26;20263;-88
2024/04/24 06:41:59;;;;;;;15.07;13.57;;;3.50;92.40;;;;;;5421276;26;20738;-88
2024/04/24 06:44:24;;;;;;;15.87;13.53;;;3.60;92.40;;;;;;5420961;26;20230;-88
2024/04/24 06:46:50;;;;;;;14.43;12.97;;;3.80;92.30;;;;;;5452770;26;20324;-88
2024/04/24 06:49:15;;;;;;;14.40;12.93;;;4.00;92.20;;;;;;5452829;26;20213;-88
2024/04/24 06:51:41;;;;;;;15.47;13.97;;;4.00;92.00;;;;;;5420589;26;20234;-88
2024/04/24 06:54:06;;;;;;;14.33;13.03;;;3.80;91.70;;;;;;5421934;26;20275;-88
2024/04/24 06:56:32;;;;;;;13.83;12.60;;;3.90;91.80;;;;;;5456034;26;20694;-88
2024/04/24 06:58:58;;;;;;;15.30;13.73;;;4.10;91.90;;;;;;5424289;26;20270;-88
2024/04/24 07:01:23;;;;;;;15.00;13.43;;;4.10;91.70;;;;;;5455861;26;20715;-87
2024/04/24 07:03:49;;;;;;;15.57;14.03;;;4.10;91.60;;;;;;5455938;26;20212;-87
2024/04/24 07:06:14;;;;;;;14.57;13.07;;;4.00;91.40;;;;;;5424062;26;20234;-87
2024/04/24 07:08:40;;;;;;;16.40;13.27;;;4.00;91.30;;;;;;5424147;26;20779;-88
2024/04/24 07:11:06;;;;;;;14.63;13.33;;;4.10;91.40;;;;;;5424087;26;20271;-88
2024/04/24 07:13:31;;;;;;;14.77;13.53;;;4.20;91.50;;;;;;5424220;26;20690;-88
2024/04/24 07:15:57;;;;;;;15.63;13.97;;;4.30;91.50;;;;;;5424005;26;20250;-88
2024/04/24 07:18:22;;;;;;;14.80;13.43;;;4.30;91.30;;;;;;5424080;26;20216;-88
2024/04/24 07:20:48;;;;;;;15.40;14.20;;;4.20;91.10;;;;;;5423915;26;20332;-88
2024/04/24 07:23:15;;;;;;;15.60;14.13;;;4.30;91.40;;;;;;5455978;26;20219;-88
2024/04/24 07:25:41;;;;;;;15.70;14.30;;;4.40;91.30;;;;;;5455559;26;20215;-88
2024/04/24 07:28:06;;;;;;;16.33;14.77;;;4.40;91.30;;;;;;5423809;26;20226;-88
2024/04/24 07:30:32;;;;;;;14.77;13.63;;;4.50;91.30;;;;;;5455575;26;20224;-87
2024/04/24 07:32:57;;;;;;;14.53;13.23;;;4.50;91.20;;;;;;5424257;26;20235;-88
2024/04/24 07:35:23;;;;;;;15.27;13.90;;;4.60;91.30;;;;;;5424122;26;20242;-87
2024/04/24 07:37:49;;;;;;;14.83;13.53;;;4.60;91.20;;;;;;5455982;26;20266;-88
2024/04/24 07:40:14;;;;;;;15.40;13.97;;;4.60;91.30;;;;;;5423634;26;20220;-88
2024/04/24 07:42:40;;;;;;;14.60;13.37;;;4.60;91.20;;;;;;5455737;26;20338;-88
2024/04/24 07:45:07;;;;;;;16.40;13.23;;;4.70;91.30;;;;;;5424070;26;20230;-88
2024/04/24 07:47:32;;;;;;;15.23;13.77;;;4.60;91.30;;;;;;5455330;26;20223;-88
2024/04/24 07:49:58;;;;;;;17.17;15.30;;;4.60;91.30;;;;;;5423433;26;20220;-88
2024/04/24 07:52:23;;;;;;;15.57;10.47;;;4.70;91.50;;;;;;5455406;26;20216;-88
2024/04/24 07:54:49;;;;;;;11.23;10.13;;;4.80;91.50;;;;;;5423539;26;20247;-88
2024/04/24 07:57:14;;;;;;;11.00;9.90;;;4.90;91.50;;;;;;5423598;26;20223;-87
2024/04/24 07:59:40;;;;;;;11.53;10.27;;;4.90;91.60;;;;;;5423589;26;20310;-88
2024/04/24 08:02:05;;;;;;;13.27;10.33;;;4.90;91.60;;;;;;5455039;26;20232;-88
2024/04/24 08:04:31;;;;;;;14.33;10.07;;;4.90;91.60;;;;;;5455161;26;20623;-88
2024/04/24 08:06:56;;;;;;;13.23;10.57;;;5.00;91.70;;;;;;5421956;26;20235;-88
2024/04/24 08:09:22;;;;;;;12.30;11.00;;;5.00;91.70;;;;;;5455071;26;20322;-87
2024/04/24 08:11:47;;;;;;;11.53;10.33;;;5.10;91.70;;;;;;5423092;26;20317;-87
2024/04/24 08:14:13;;;;;;;13.47;10.30;;;5.10;91.70;;;;;;5423201;26;20226;-87
2024/04/24 08:16:38;;;;;;;14.97;10.07;;;5.10;91.70;;;;;;5455179;26;20608;-87
2024/04/24 08:19:04;;;;;;;15.77;11.07;;;5.10;91.70;;;;;;5423186;26;20224;-87
2024/04/24 08:21:29;;;;;;;15.03;10.87;;;5.20;91.80;;;;;;5455202;26;20312;-87
2024/04/24 08:23:55;;;;;;;16.13;10.37;;;5.30;91.90;;;;;;5423118;26;20223;-87
2024/04/24 08:26:22;;;;;;;12.17;10.47;;;5.30;91.80;;;;;;5423110;26;20228;-87
2024/04/24 08:28:48;;;;;;;12.17;10.07;;;5.40;91.90;;;;;;5423111;26;20687;-87
2024/04/24 08:31:13;;;;;;;14.80;10.63;;;5.40;91.90;;;;;;5422985;26;20309;-87
2024/04/24 08:33:39;;;;;;;18.20;11.83;;;5.30;91.80;;;;;;5454600;26;20212;-87
2024/04/24 08:36:08;;;;;;;17.97;11.43;;;5.40;91.90;;;;;;5454906;26;20258;-87
2024/04/24 08:38:34;;;;;;;15.60;11.40;;;5.30;91.90;;;;;;5422896;26;20223;-87
2024/04/24 08:41:03;;;;;;;19.37;12.27;;;5.30;91.80;;;;;;5422810;26;20274;-87
2024/04/24 08:43:29;;;;;;;14.40;11.23;;;5.40;92.00;;;;;;5422789;26;20220;-87
2024/04/24 08:45:59;;;;;;;15.63;11.50;;;5.40;91.90;;;;;;5422987;26;20245;-87
2024/04/24 08:48:26;;;;;;;16.97;12.30;;;5.40;92.00;;;;;;5423400;26;20216;-87
2024/04/24 08:50:52;;;;;;;19.00;11.73;;;5.50;92.10;;;;;;5454355;26;20665;-87
2024/04/24 08:53:20;;;;;;;13.43;11.17;;;5.50;92.10;;;;;;5454467;26;20699;-87
2024/04/24 08:55:46;;;;;;;12.40;11.00;;;5.50;92.00;;;;;;5422777;26;20595;-87
2024/04/24 08:58:16;;;;;;;16.93;12.47;;;5.50;92.00;;;;;;5454433;26;20219;-87
2024/04/24 09:00:43;;;;;;;14.50;10.73;;;5.60;92.10;;;;;;5454503;26;20255;-86
2024/04/24 09:03:16;;;;;;;19.67;13.03;;;5.60;92.10;;;;;;5422571;26;20322;-87
2024/04/24 09:05:43;;;;;;;15.70;13.63;;;5.70;92.20;;;;;;5454628;26;20207;-87
2024/04/24 09:08:09;;;;;;;17.80;13.17;;;5.80;92.20;;;;;;5454153;26;20220;-87
2024/04/24 09:10:35;;;;;;;15.57;13.97;;;5.80;92.10;;;;;;5422485;26;20232;-87
2024/04/24 09:13:02;;;;;;;16.10;14.37;;;5.80;92.00;;;;;;5454226;26;20723;-87
2024/04/24 09:15:28;;;;;;;17.63;14.40;;;5.80;91.80;;;;;;5454238;26;20320;-87
2024/04/24 09:17:54;;;;;;;18.77;11.70;;;5.80;91.60;;;;;;5421830;26;20225;-87
2024/04/24 09:20:20;;;;;;;19.53;12.23;;;5.80;91.50;;;;;;5453821;26;20313;-88
2024/04/24 09:22:46;;;;;;;17.53;11.10;;;5.90;91.60;;;;;;5422505;26;20232;-88
2024/04/24 09:25:12;;;;;;;12.97;10.93;;;6.00;91.40;;;;;;5453954;26;20696;-88
2024/04/24 09:27:37;;;;;;;13.10;11.20;;;5.90;91.20;;;;;;5453887;26;20259;-88
2024/04/24 09:30:03;;;;;;;6.43;6.03;;;5.60;91.00;;;;;;5422055;26;20228;-87
2024/04/24 09:32:29;;;;;;;5.87;5.47;;;4.60;90.90;;;;;;5422451;26;20761;-88
2024/04/24 09:34:54;;;;;;;6.20;5.80;;;4.30;91.40;;;;;;5454213;26;20250;-88
2024/04/24 09:37:20;;;;;;;7.30;6.90;;;4.40;91.80;;;;;;5454183;26;20220;-88
2024/04/24 09:39:46;;;;;;;7.43;6.93;;;4.60;91.90;;;;;;5454013;26;20212;-88
2024/04/24 09:42:13;;;;;;;6.40;6.00;;;4.80;92.10;;;;;;5422058;26;20262;-88
2024/04/24 09:44:43;;;;;;;6.70;6.13;;;4.80;91.90;;;;;;5453811;26;20609;-88
2024/04/24 09:47:10;;;;;;;7.07;6.67;;;4.80;92.00;;;;;;5421904;26;20226;-87
2024/04/24 09:49:41;;;;;;;4.13;3.93;;;4.80;91.70;;;;;;5453712;26;20218;-87
2024/04/24 09:52:14;;;;;;;3.90;3.70;;;4.80;92.00;;;;;;5453578;26;20269;-88
2024/04/24 09:54:42;;;;;;;5.83;4.07;;;4.80;91.90;;;;;;5421936;26;20223;-88
2024/04/24 09:57:11;;;;;;;3.97;3.67;;;4.80;91.60;;;;;;5453554;26;20215;-87
2024/04/24 09:59:41;;;;;;;3.93;3.63;;;5.00;92.00;;;;;;5421662;26;20280;-88
2024/04/24 10:02:12;;;;;;;3.43;3.23;;;5.10;91.90;;;;;;5421711;26;20328;-88
2024/04/24 10:04:41;;;;;;;3.80;3.40;;;5.10;91.70;;;;;;5421648;26;20242;-88
2024/04/24 10:07:08;;;;;;;4.50;4.10;;;5.30;91.80;;;;;;5421644;26;20307;-88
2024/04/24 10:09:35;;;;;;;4.00;3.80;;;5.30;91.50;;;;;;5421474;26;20603;-88
2024/04/24 10:12:28;;;;;;;4.60;4.40;;;5.40;91.20;;;;;;5453314;26;20262;-87
2024/04/24 10:15:09;;;;;;;4.23;3.97;;;5.50;91.00;;;;;;5402870;26;20281;-87
2024/04/24 10:17:36;;;;;;;4.53;4.33;;;5.60;90.80;;;;;;5453161;26;20269;-87
2024/04/24 10:20:06;;;;;;;5.10;4.70;;;5.70;90.40;;;;;;5452911;26;20246;-87
2024/04/24 10:22:33;;;;;;;4.30;4.10;;;5.90;89.90;;;;;;5452980;26;20212;-87
2024/04/24 10:25:03;;;;;;;5.60;5.30;;;5.80;89.60;;;;;;5421433;26;20220;-88
2024/04/24 10:27:31;;;;;;;5.50;5.20;;;6.10;89.70;;;;;;5421133;26;20747;-88
2024/04/24 10:29:57;;;;;;;5.47;5.17;;;6.20;89.50;;;;;;5423329;26;20312;-88
2024/04/24 10:32:27;;;;;;;5.53;5.23;;;6.40;89.50;;;;;;5424990;26;20579;-87
2024/04/24 10:34:56;;;;;;;6.00;5.70;;;6.60;89.20;;;;;;5424816;26;20224;-88
2024/04/24 10:37:22;;;;;;;7.00;6.60;;;6.50;88.10;;;;;;5424576;26;20312;-88
2024/04/24 10:39:49;;;;;;;7.37;6.87;;;6.40;87.60;;;;;;5456531;26;20223;-88
2024/04/24 10:42:16;;;;;;;6.73;6.40;;;6.30;88.00;;;;;;5456629;26;20592;-88
2024/04/24 10:44:43;;;;;;;7.77;7.27;;;6.60;88.30;;;;;;5424566;26;20255;-88
2024/04/24 10:47:10;;;;;;;8.40;7.90;;;6.70;88.20;;;;;;5424415;26;20216;-88
2024/04/24 10:49:51;;;;;;;8.70;8.17;;;7.10;87.70;;;;;;5456215;26;20216;-88
2024/04/24 10:52:16;;;;;;;10.37;9.77;;;7.20;86.60;;;;;;5456166;26;20645;-88
2024/04/24 10:54:42;;;;;;;11.27;10.57;;;7.20;86.50;;;;;;5456480;26;20324;-87
2024/04/24 10:57:08;;;;;;;12.60;11.90;;;7.30;87.20;;;;;;5456062;26;20412;-87
2024/04/24 10:59:35;;;;;;;11.50;10.90;;;7.40;86.00;;;;;;5424369;26;20245;-87
2024/04/24 11:02:17;;;;;;;12.27;11.57;;;7.50;86.00;;;;;;5424218;26;20236;-87
2024/04/24 11:04:49;;;;;;;12.03;11.17;;;7.50;85.40;;;;;;5424273;26;20255;-87
2024/04/24 11:07:16;;;;;;;13.33;12.47;;;7.50;84.50;;;;;;5456149;26;20258;-88
2024/04/24 11:09:43;;;;;;;12.07;11.37;;;7.30;84.80;;;;;;5456218;26;20216;-88
2024/04/24 11:12:10;;;;;;;12.27;11.57;;;7.80;85.80;;;;;;5456078;26;20228;-88
2024/04/24 11:14:39;;;;;;;12.07;11.37;;;7.90;85.40;;;;;;5424547;26;20660;-88
2024/04/24 11:17:05;;;;;;;13.17;12.30;;;7.90;85.40;;;;;;5424197;26;20220;-87
2024/04/24 11:19:32;;;;;;;13.57;12.87;;;7.90;83.90;;;;;;5455882;26;20604;-87
2024/04/24 11:21:57;;;;;;;13.43;12.63;;;7.80;84.00;;;;;;5424023;26;20266;-87
2024/04/24 11:24:33;;;;;;;13.57;12.87;;;7.70;84.10;;;;;;5456358;26;20217;-88
2024/04/24 11:27:00;;;;;;;14.63;13.80;;;7.70;83.80;;;;;;5423830;26;20216;-88
2024/04/24 11:29:25;;;;;;;13.40;12.50;;;7.70;83.20;;;;;;5424094;26;20271;-88
2024/04/24 11:31:53;;;;;;;9.67;9.07;;;7.70;83.70;;;;;;5455571;26;20242;-88
2024/04/24 11:34:20;;;;;;;9.10;8.50;;;7.50;83.50;;;;;;5423786;26;20316;-88
2024/04/24 11:36:47;;;;;;;9.20;8.60;;;7.50;84.10;;;;;;5423968;26;20704;-87
2024/04/24 11:39:15;;;;;;;7.83;7.30;;;7.50;84.10;;;;;;5455906;26;20216;-87
2024/04/24 11:41:41;;;;;;;7.90;7.40;;;7.60;85.10;;;;;;5455428;26;20224;-87
2024/04/24 11:44:08;;;;;;;8.10;7.63;;;7.50;84.90;;;;;;5424262;26;20220;-87
2024/04/24 11:46:34;;;;;;;7.93;7.53;;;7.30;84.40;;;;;;5423537;26;20224;-87
2024/04/24 11:49:01;;;;;;;8.00;7.50;;;7.30;84.30;;;;;;5455843;26;20566;-87
2024/04/24 11:51:27;;;;;;;7.77;7.27;;;7.30;84.70;;;;;;5423362;26;20229;-88
2024/04/24 11:53:53;;;;;;;8.37;7.87;;;7.40;84.50;;;;;;5423686;26;20224;-87
2024/04/24 11:56:23;;;;;;;8.97;8.37;;;7.30;83.70;;;;;;5455354;26;20280;-87
2024/04/24 11:58:49;;;;;;;9.70;8.87;;;7.40;84.00;;;;;;5424103;26;20219;-87
2024/04/24 12:01:16;;;;;;;9.13;8.63;;;7.30;83.90;;;;;;5455398;26;20224;-88
2024/04/24 12:03:43;;;;;;;10.03;9.33;;;7.40;84.00;;;;;;5423527;26;20220;-88
2024/04/24 12:06:09;;;;;;;10.17;9.37;;;7.40;84.30;;;;;;5423456;26;20216;-88
2024/04/24 12:08:35;;;;;;;9.93;9.13;;;7.30;84.20;;;;;;5455454;26;20320;-88
2024/04/24 12:11:04;;;;;;;9.90;9.10;;;7.30;84.40;;;;;;5455671;26;20621;-87
2024/04/24 12:13:31;;;;;;;9.07;8.40;;;7.30;85.20;;;;;;5423646;26;20574;-87
2024/04/24 12:15:58;;;;;;;9.00;8.40;;;7.50;85.80;;;;;;5424407;26;20228;-87
2024/04/24 12:18:23;;;;;;;8.03;7.53;;;7.50;85.60;;;;;;5456200;26;20209;-87
2024/04/24 12:20:49;;;;;;;9.00;8.40;;;7.40;85.20;;;;;;5423854;26;20275;-87
2024/04/24 12:23:25;;;;;;;8.80;8.30;;;7.40;85.10;;;;;;5424027;26;20308;-87
2024/04/24 12:25:52;;;;;;;9.10;8.40;;;7.40;84.90;;;;;;5424539;26;20811;-86
2024/04/24 12:28:18;;;;;;;9.47;8.87;;;7.40;84.00;;;;;;5456057;26;20212;-87
2024/04/24 12:30:43;;;;;;;9.90;9.27;;;7.50;83.70;;;;;;5425106;26;20236;-87
2024/04/24 12:33:09;;;;;;;10.40;9.73;;;7.50;83.00;;;;;;5424214;26;20324;-87
2024/04/24 12:35:36;;;;;;;9.63;8.90;;;7.40;82.00;;;;;;5424757;26;20681;-87
2024/04/24 12:38:02;;;;;;;9.40;8.60;;;7.50;83.20;;;;;;5455870;26;20600;-87
2024/04/24 12:40:31;;;;;;;7.93;7.43;;;7.70;84.20;;;;;;5424549;26;20240;-87
2024/04/24 12:42:57;;;;;;;9.07;8.37;;;7.70;84.60;;;;;;5456111;26;20251;-87
2024/04/24 12:45:23;;;;;;;7.90;7.40;;;7.60;83.90;;;;;;5425060;26;20232;-88
2024/04/24 12:47:48;;;;;;;7.57;7.13;;;7.70;84.60;;;;;;5423888;26;20246;-87